Fort Davis, TX

09:13 PM CST del 18 Dicembre 2014 (GMT -0600)
3 Dog Ranch | Change Station
CLOSE
Current Station
Stazione meteo personale
Location: Fort Davis, TX
Altitudine: 5274 ft
Stazioni meteo nelle vicinanze

Alt. 5274 ft 30.61 °N, 103.97 °W | Updated 2 seconds ago

Parzialmente nuvoloso
Parzialmente nuvoloso
44.6 °F
Sembra 45 °F
N
0.0
Vento Variabile Vento da NNO
Gusts 0.0 mph

Oggi
Massima -- | Minima -- °F
--% Possibilità di precip.
Ieri
Massima -- | Minima -- °F
Precip. -- in
7:47 AM 5:57 PM
Luna calante, 10% visible
Pressione 30.11 in
Visibilità 10.0 miglia
Nuvole Sereno
Raffreddamento del vento 45 °F
Punto di rugiada 8 °F
Umidità 22%
Piovosità 0.00 in
Spessore del manto nevoso Non disponibile.
Raggi UV 0 fuori da 12
Polline 8.00 fuori da 12
Qualità dell'aria Non disponibile.
Flu Activity Non disponibile.
METAR KMRF 190255Z AUTO 31003KT 10SM CLR 04/M03 A3011 RMK AO1 52010

More Conditions Fewer Conditions

Pressione 30.11 in
Visibilità 10.0 miglia
Nuvole Sereno
Raffreddamento del vento 45 °F
Punto di rugiada 8 °F
Umidità 22%
Piovosità 0.00 in
Spessore del manto nevoso Non disponibile.
Raggi UV 0 fuori da 12
Polline 8.00 fuori da 12
Qualità dell'aria Non disponibile.
Flu Activity Non disponibile.
METAR KMRF 190255Z AUTO 31003KT 10SM CLR 04/M03 A3011 RMK AO1 52010

More Conditions Fewer Conditions

10-Day Weather Forecast

Almanac

Astronomia

Dec. 18, 2014 Alba Tramonto
Ora attuale
Crepuscolo civile
Crepuscolo nautico
Crepuscolo astronomico
Luna
Estensione della luce visibile
Lunghezza del giorno
Tomorrow will be .
, % of the Moon is Illuminated

Gli estremi di oggi

State Highs State Lows

Community

WunderPhotos

Upload Photos

1,778,994 foto caricate!

WunderBlogs® & News

Nearby

Qualità dell'aria

  Qualità dell'aria Indice AQ Inquinante
Not available.

Profondità neve

Stazione Profondità Altitudine

Attività sismica

Città  Distanza Mag. Data & Ora
Minimo Magnitudo Mostrato è 2.5.

Temperature delle acque costiere

Località Temperatura

Stazioni meteo nelle vicinanze